createdAt,value
2022-11-27T00:00:58.061Z,39.03881
2022-11-27T00:16:00.514Z,6.50647
2022-11-27T00:31:03.198Z,0
2022-11-27T00:46:05.836Z,0
2022-11-27T01:01:08.454Z,0
2022-11-27T01:16:10.926Z,0
2022-11-27T01:31:13.757Z,0
2022-11-27T01:46:16.645Z,0
2022-11-27T02:01:19.205Z,0
2022-11-27T02:16:21.847Z,0
2022-11-27T02:31:24.321Z,0
2022-11-27T02:46:26.676Z,0
2022-11-27T03:01:29.178Z,0
2022-11-27T03:16:32.070Z,0
2022-11-27T03:31:34.633Z,0
2022-11-27T03:46:37.285Z,0
2022-11-27T04:01:40.019Z,0
2022-11-27T04:16:42.573Z,0
2022-11-27T04:31:45.108Z,0
2022-11-27T04:46:47.635Z,0
2022-11-27T05:01:50.267Z,0
2022-11-27T05:16:52.874Z,0
2022-11-27T05:31:55.388Z,0
2022-11-27T05:46:58.279Z,0
2022-11-27T06:02:00.780Z,0
2022-11-27T06:17:03.123Z,0
2022-11-27T06:32:05.525Z,0
2022-11-27T06:47:08.113Z,0
2022-11-27T07:02:10.610Z,0
2022-11-27T07:17:13.065Z,0
2022-11-27T07:32:15.761Z,0
2022-11-27T07:47:18.082Z,0
2022-11-27T08:02:20.343Z,0
2022-11-27T08:17:22.689Z,0
2022-11-27T08:32:25.261Z,0
2022-11-27T08:47:27.743Z,0
2022-11-27T09:02:30.184Z,0
2022-11-27T09:17:33.116Z,0
2022-11-27T09:32:35.425Z,0
2022-11-27T09:47:41.451Z,0
2022-11-27T10:02:45.001Z,0
2022-11-27T10:17:47.499Z,0
2022-11-27T10:32:56.216Z,0
2022-11-27T10:47:58.848Z,0
2022-11-27T11:03:01.375Z,0
2022-11-27T11:18:03.917Z,0
2022-11-27T11:33:06.617Z,0
2022-11-27T11:48:09.317Z,0
2022-11-27T12:03:11.785Z,0
2022-11-27T12:18:14.498Z,0
2022-11-27T12:33:17.254Z,0
2022-11-27T12:48:20.310Z,0
2022-11-27T13:03:22.852Z,0
2022-11-27T13:18:25.574Z,0
2022-11-27T13:33:28.106Z,0
2022-11-27T13:48:30.458Z,0
2022-11-27T14:03:33.222Z,0
2022-11-27T14:18:35.721Z,0
2022-11-27T14:34:13.687Z,0
2022-11-27T14:49:17.725Z,1.08441
2022-11-27T15:04:20.685Z,15.18176
2022-11-27T15:19:23.132Z,103.01907
2022-11-27T15:34:25.524Z,345.92719
2022-11-27T15:49:28.134Z,792.70465
2022-11-27T16:04:30.795Z,1648.30518
2022-11-27T16:19:33.315Z,1777.3501
2022-11-27T16:34:35.872Z,7241.69824
2022-11-27T16:49:38.259Z,9520.04688
2022-11-27T17:04:41.103Z,21216.50586
2022-11-27T17:19:44.092Z,7532.3208
2022-11-27T17:34:46.832Z,8326.10938
2022-11-27T17:49:49.382Z,12359.03516
2022-11-27T18:04:51.735Z,11117.38379
2022-11-27T18:19:53.987Z,10437.45801
2022-11-27T18:34:56.258Z,11453.55176
2022-11-27T18:49:58.537Z,8281.64844
2022-11-27T19:05:01.546Z,6512.97412
2022-11-27T19:20:03.846Z,8950.73047
2022-11-27T19:35:07.424Z,9796.57129
2022-11-27T19:50:10.002Z,14083.24902
2022-11-27T20:05:12.215Z,15135.12793
2022-11-27T20:20:14.448Z,14810.88867
2022-11-27T20:35:16.663Z,8605.8877
2022-11-27T20:50:19.135Z,4442.83301
2022-11-27T21:05:21.411Z,3257.57153
2022-11-27T21:20:23.680Z,4645.61768
2022-11-27T21:35:30.234Z,3352.99951
2022-11-27T21:50:34.110Z,3502.64844
2022-11-27T22:05:36.372Z,3242.38965
2022-11-27T22:20:38.819Z,2197.01733
2022-11-27T22:35:41.045Z,1280.6897
2022-11-27T22:50:43.319Z,882.71075
2022-11-27T23:05:45.691Z,1257.91711
2022-11-27T23:20:47.992Z,639.80267
2022-11-27T23:35:49.996Z,454.36832
2022-11-27T23:50:52.652Z,267.84958
